Time;durP1;ratioP1;P1;durP2;ratioP2;P2;SDS_P1;SDS_P2;PMS_P1;PMS_P2;Temp;Humidity;BMP_temperature;BMP_pressure;BME280_temperature;BME280_humidity;BME280_pressure;Samples;Min_cycle;Max_cycle;Signal;HPM_P1;HPM_P2
2023/05/21 00:00:47;;;;;;;32.35;21.75;;;13.40;99.90;;;;;;5049150;28;20025;-73
2023/05/21 00:03:13;;;;;;;37.33;22.67;;;13.40;99.90;;;;;;5049310;28;20035;-70
2023/05/21 00:05:46;;;;;;;32.20;22.20;;;13.40;99.90;;;;;;5049102;28;20025;-76
2023/05/21 00:08:11;;;;;;;;;;;13.30;99.90;;;;;;5049896;28;20434;-73
2023/05/21 00:10:37;;;;;;;33.83;21.75;;;13.30;99.90;;;;;;5049384;28;20015;-73
2023/05/21 00:13:03;;;;;;;33.47;21.77;;;13.30;99.90;;;;;;5049016;28;20376;-73
2023/05/21 00:15:28;;;;;;;32.15;21.10;;;13.20;99.90;;;;;;5049260;28;20371;-73
2023/05/21 00:17:54;;;;;;;28.92;21.42;;;13.20;99.90;;;;;;5052658;28;20509;-74
2023/05/21 00:20:20;;;;;;;31.80;21.38;;;13.30;99.90;;;;;;5053344;28;20104;-73
2023/05/21 00:22:47;;;;;;;33.22;20.90;;;13.30;99.90;;;;;;5052456;28;20025;-73
2023/05/21 00:25:13;;;;;;;33.40;20.90;;;13.20;99.90;;;;;;5053177;28;20139;-73
2023/05/21 00:27:38;;;;;;;28.65;21.65;;;13.20;99.90;;;;;;5051728;28;20048;-76
2023/05/21 00:30:05;;;;;;;29.15;21.00;;;13.20;99.90;;;;;;5052712;28;20112;-73
2023/05/21 00:32:31;;;;;;;31.98;22.10;;;13.10;99.90;;;;;;5053060;28;20065;-74
2023/05/21 00:34:57;;;;;;;35.72;23.75;;;13.20;99.90;;;;;;5052253;28;20080;-72
2023/05/21 00:37:23;;;;;;;32.15;22.25;;;13.20;99.90;;;;;;5053062;28;20035;-73
2023/05/21 00:39:49;;;;;;;29.60;20.67;;;13.20;99.90;;;;;;5052685;28;20036;-74
2023/05/21 00:42:17;;;;;;;27.08;21.05;;;13.10;99.90;;;;;;5053333;28;20086;-73
2023/05/21 00:44:45;;;;;;;33.25;21.58;;;13.20;99.90;;;;;;5052380;28;20033;-74
2023/05/21 00:47:12;;;;;;;34.20;23.50;;;13.20;99.90;;;;;;5051519;28;20025;-73
2023/05/21 00:49:38;;;;;;;38.65;23.23;;;13.20;99.90;;;;;;5052845;28;20036;-76
2023/05/21 00:52:06;;;;;;;36.28;22.75;;;13.20;99.90;;;;;;5050775;28;20028;-73
2023/05/21 00:54:31;;;;;;;35.78;24.15;;;13.10;99.90;;;;;;5052614;28;20025;-73
2023/05/21 00:56:58;;;;;;;36.05;22.60;;;13.10;99.90;;;;;;5052120;28;20470;-73
2023/05/21 00:59:25;;;;;;;35.47;21.65;;;13.10;99.90;;;;;;5052711;28;20040;-73
2023/05/21 01:01:54;;;;;;;30.23;21.83;;;13.10;99.90;;;;;;5051904;28;20025;-73
2023/05/21 01:04:22;;;;;;;33.13;21.40;;;13.10;99.90;;;;;;5052490;28;20055;-73
2023/05/21 01:06:48;;;;;;;38.00;22.35;;;13.20;99.90;;;;;;5051605;28;20029;-73
2023/05/21 01:09:14;;;;;;;34.15;23.60;;;13.10;99.90;;;;;;5051645;28;20170;-73
2023/05/21 01:11:43;;;;;;;36.47;25.38;;;13.10;99.90;;;;;;5052672;28;20170;-76
2023/05/21 01:14:12;;;;;;;35.97;24.77;;;13.10;99.90;;;;;;5052649;28;20036;-73
2023/05/21 01:16:39;;;;;;;41.97;24.95;;;13.10;99.90;;;;;;5052874;28;20202;-73
2023/05/21 01:19:08;;;;;;;40.72;26.00;;;13.00;99.90;;;;;;5052222;28;20039;-72
2023/05/21 01:21:38;;;;;;;44.42;28.58;;;13.00;99.90;;;;;;5052458;28;20120;-71
2023/05/21 01:24:04;;;;;;;43.47;27.88;;;13.00;99.90;;;;;;5051666;28;20445;-71
2023/05/21 01:26:32;;;;;;;42.38;27.58;;;12.90;99.90;;;;;;5052256;28;20059;-72
2023/05/21 01:28:58;;;;;;;44.53;28.48;;;12.90;99.90;;;;;;5050830;28;20382;-71
2023/05/21 01:31:41;;;;;;;45.85;29.38;;;12.80;99.90;;;;;;5052144;28;20033;-71
2023/05/21 01:34:09;;;;;;;;;;;12.80;99.90;;;;;;5052640;28;20071;-73
2023/05/21 01:36:44;;;;;;;44.47;26.50;;;12.70;99.90;;;;;;5052581;28;19934;-70
2023/05/21 01:39:25;;;;;;;38.95;25.88;;;12.70;99.90;;;;;;5051916;28;20492;-71
2023/05/21 01:41:53;;;;;;;40.30;26.67;;;12.70;99.90;;;;;;5051694;28;20028;-71
2023/05/21 01:44:21;;;;;;;42.00;28.13;;;12.70;99.90;;;;;;5051982;28;20025;-71
2023/05/21 01:46:48;;;;;;;41.55;28.17;;;12.70;99.90;;;;;;5051365;28;20021;-74
2023/05/21 01:49:16;;;;;;;41.92;26.23;;;12.70;99.90;;;;;;5052127;28;20528;-74
2023/05/21 01:51:42;;;;;;;39.38;25.63;;;12.60;99.90;;;;;;5052390;28;20078;-73
2023/05/21 01:54:08;;;;;;;42.30;28.20;;;12.70;99.90;;;;;;5051831;28;20039;-72
2023/05/21 01:56:35;;;;;;;43.35;28.10;;;12.70;99.90;;;;;;5051871;28;20111;-72
2023/05/21 01:59:01;;;;;;;40.22;27.30;;;12.70;99.90;;;;;;5051688;28;20036;-71
2023/05/21 02:01:29;;;;;;;40.15;27.05;;;12.70;99.90;;;;;;5051819;28;20033;-71
2023/05/21 02:03:56;;;;;;;35.05;24.80;;;12.60;99.90;;;;;;5051345;28;20073;-72
2023/05/21 02:06:21;;;;;;;40.50;25.70;;;12.50;99.90;;;;;;5051583;28;20036;-71
2023/05/21 02:08:47;;;;;;;37.78;25.42;;;12.50;99.90;;;;;;5051261;28;20028;-72
2023/05/21 02:11:13;;;;;;;42.95;27.60;;;12.50;99.90;;;;;;5051243;28;20103;-72
2023/05/21 02:13:41;;;;;;;41.88;26.15;;;12.50;99.90;;;;;;5051514;28;20033;-71
2023/05/21 02:16:10;;;;;;;37.55;24.27;;;12.50;99.90;;;;;;5051033;28;20065;-71
2023/05/21 02:18:43;;;;;;;35.03;23.83;;;12.40;99.90;;;;;;5051682;28;20156;-71
2023/05/21 02:21:12;;;;;;;37.40;24.98;;;12.40;99.90;;;;;;5051266;28;20099;-72
2023/05/21 02:23:37;;;;;;;39.38;24.55;;;12.50;99.90;;;;;;5051556;28;20040;-71
2023/05/21 02:26:03;;;;;;;40.65;27.08;;;12.40;99.90;;;;;;5050968;28;20142;-72
2023/05/21 02:28:29;;;;;;;42.53;26.75;;;12.40;99.90;;;;;;5051431;28;20120;-71
2023/05/21 02:30:55;;;;;;;39.97;25.35;;;12.30;99.90;;;;;;5050806;28;20040;-71
2023/05/21 02:33:22;;;;;;;39.88;25.67;;;12.40;99.90;;;;;;5051540;28;20035;-72
2023/05/21 02:35:47;;;;;;;38.13;23.50;;;12.40;99.90;;;;;;5051153;28;20476;-72
2023/05/21 02:38:18;;;;;;;40.88;25.52;;;12.30;99.90;;;;;;5051325;28;20033;-72
2023/05/21 02:40:46;;;;;;;34.45;24.00;;;12.30;99.90;;;;;;5051367;28;20055;-72
2023/05/21 02:43:12;;;;;;;35.25;24.92;;;12.30;99.90;;;;;;5050168;28;20035;-72
2023/05/21 02:45:38;;;;;;;36.25;25.33;;;12.30;99.90;;;;;;5051355;28;20029;-72
2023/05/21 02:48:04;;;;;;;38.63;26.35;;;12.30;99.90;;;;;;5050893;28;20389;-71
2023/05/21 02:50:30;;;;;;;38.72;25.40;;;12.20;99.90;;;;;;5051196;28;20028;-72
2023/05/21 02:52:55;;;;;;;36.67;24.38;;;12.30;99.90;;;;;;5050256;28;20024;-72
2023/05/21 02:55:21;;;;;;;34.80;24.45;;;12.20;99.90;;;;;;5050566;28;20505;-71
2023/05/21 02:57:47;;;;;;;36.55;25.23;;;12.30;99.90;;;;;;5050885;28;20180;-74
2023/05/21 03:00:13;;;;;;;37.30;25.15;;;12.30;99.90;;;;;;5050951;28;20033;-72
2023/05/21 03:02:39;;;;;;;39.10;25.45;;;12.30;99.90;;;;;;5048808;28;20331;-72
2023/05/21 03:05:06;;;;;;;39.15;25.83;;;12.20;99.90;;;;;;5050146;28;20039;-71
2023/05/21 03:07:32;;;;;;;41.22;28.83;;;12.20;99.90;;;;;;5050761;28;20033;-71
2023/05/21 03:09:58;;;;;;;43.28;28.13;;;12.20;99.90;;;;;;5050258;28;20025;-72
2023/05/21 03:12:23;;;;;;;42.72;29.23;;;12.20;99.90;;;;;;5050731;28;20128;-70
2023/05/21 03:14:50;;;;;;;44.88;30.35;;;12.10;99.90;;;;;;5050588;28;20146;-74
2023/05/21 03:17:16;;;;;;;46.35;30.05;;;12.10;99.90;;;;;;5050747;28;20024;-72
2023/05/21 03:19:43;;;;;;;43.65;28.80;;;12.00;99.90;;;;;;5050914;28;20482;-72
2023/05/21 03:22:10;;;;;;;42.80;27.58;;;12.00;99.90;;;;;;5049771;28;20032;-72
2023/05/21 03:24:38;;;;;;;44.58;28.60;;;12.00;99.90;;;;;;5050215;28;20542;-72
2023/05/21 03:27:07;;;;;;;44.75;30.10;;;12.00;99.90;;;;;;5049739;28;20029;-72
2023/05/21 03:29:34;;;;;;;52.42;29.58;;;11.90;99.90;;;;;;5050110;28;20051;-72
2023/05/21 03:32:00;;;;;;;46.33;30.85;;;11.80;99.90;;;;;;5049658;28;20032;-72
2023/05/21 03:34:26;;;;;;;43.72;28.60;;;11.80;99.90;;;;;;5048887;28;20457;-72
2023/05/21 03:36:51;;;;;;;39.25;27.20;;;11.80;99.90;;;;;;5049578;28;20025;-73
2023/05/21 03:39:17;;;;;;;42.80;29.63;;;11.90;99.90;;;;;;5050242;28;20025;-72
2023/05/21 03:41:43;;;;;;;50.40;29.75;;;11.90;99.90;;;;;;5050078;28;20029;-72
2023/05/21 03:44:09;;;;;;;42.88;28.70;;;12.00;99.90;;;;;;5049765;28;20100;-72
2023/05/21 03:46:35;;;;;;;44.35;29.02;;;12.00;99.90;;;;;;5049946;28;20048;-73
2023/05/21 03:49:01;;;;;;;46.05;29.10;;;12.00;99.90;;;;;;5049693;28;20029;-72
2023/05/21 03:51:26;;;;;;;42.65;27.90;;;12.00;99.90;;;;;;5049796;28;20592;-73
2023/05/21 03:53:52;;;;;;;41.35;29.30;;;11.90;99.90;;;;;;5049739;28;20100;-74
2023/05/21 03:56:18;;;;;;;43.28;27.65;;;11.90;99.90;;;;;;5049817;28;20024;-73
2023/05/21 03:58:44;;;;;;;42.33;28.17;;;11.90;99.90;;;;;;5050055;28;20101;-73
2023/05/21 04:01:10;;;;;;;44.45;27.52;;;11.80;99.90;;;;;;5049625;28;20025;-73
2023/05/21 04:03:36;;;;;;;38.00;24.73;;;11.90;99.90;;;;;;5050197;28;20036;-73
2023/05/21 04:06:03;;;;;;;39.97;27.75;;;11.90;99.90;;;;;;5047831;28;20378;-72
2023/05/21 04:08:29;;;;;;;35.72;25.08;;;11.90;99.90;;;;;;5049820;28;20068;-73
2023/05/21 04:10:55;;;;;;;45.03;26.67;;;11.90;99.90;;;;;;5049314;28;20489;-73
2023/05/21 04:13:20;;;;;;;38.10;26.65;;;11.90;99.90;;;;;;5050092;28;20442;-73
2023/05/21 04:15:47;;;;;;;41.55;26.00;;;11.90;99.90;;;;;;5050109;28;20106;-72
2023/05/21 04:18:15;;;;;;;37.72;25.05;;;11.80;99.90;;;;;;5049061;28;20040;-72
2023/05/21 04:20:41;;;;;;;37.05;26.40;;;11.90;99.90;;;;;;5050057;28;20032;-72
2023/05/21 04:23:07;;;;;;;41.92;26.58;;;11.90;99.90;;;;;;5049674;28;20350;-72
2023/05/21 04:25:33;;;;;;;40.47;26.88;;;11.90;99.90;;;;;;5050188;28;20044;-72
2023/05/21 04:27:59;;;;;;;42.47;27.17;;;11.90;99.90;;;;;;5047895;28;20033;-73
2023/05/21 04:30:25;;;;;;;38.63;26.05;;;11.90;99.90;;;;;;5049579;28;20072;-72
2023/05/21 04:32:51;;;;;;;36.97;26.00;;;11.90;99.90;;;;;;5049746;28;20481;-72
2023/05/21 04:35:17;;;;;;;42.20;26.08;;;12.00;99.90;;;;;;5048993;28;20103;-72
2023/05/21 04:37:44;;;;;;;41.65;27.60;;;12.00;99.90;;;;;;5049333;28;20060;-72
2023/05/21 04:40:16;;;;;;;40.72;26.80;;;12.10;99.90;;;;;;5048807;28;20075;-72
2023/05/21 04:42:45;;;;;;;40.60;26.40;;;12.10;99.90;;;;;;5049316;28;20024;-72
2023/05/21 04:45:11;;;;;;;39.85;25.50;;;12.00;99.90;;;;;;5048579;28;20504;-72
2023/05/21 04:47:37;;;;;;;43.10;26.85;;;12.00;99.90;;;;;;5048654;28;20474;-72
2023/05/21 04:50:03;;;;;;;43.33;28.05;;;12.10;99.90;;;;;;5048680;28;20083;-72
2023/05/21 04:52:30;;;;;;;44.63;26.63;;;12.10;99.90;;;;;;5049281;28;20029;-72
2023/05/21 04:54:56;;;;;;;39.30;26.83;;;12.10;99.90;;;;;;5048709;28;20024;-74
2023/05/21 04:57:23;;;;;;;42.75;27.30;;;12.20;99.90;;;;;;5049306;28;20413;-72
2023/05/21 04:59:49;;;;;;;35.63;25.55;;;12.20;99.90;;;;;;5049400;28;20029;-72
2023/05/21 05:02:15;;;;;;;36.42;26.23;;;12.20;99.90;;;;;;5048598;28;20028;-72
2023/05/21 05:04:42;;;;;;;40.88;26.23;;;12.20;99.90;;;;;;5053020;28;20025;-71
2023/05/21 05:07:08;;;;;;;38.60;24.77;;;12.20;99.90;;;;;;5051613;28;20083;-70
2023/05/21 05:09:34;;;;;;;38.92;25.90;;;12.20;99.90;;;;;;5052978;28;20039;-74
2023/05/21 05:12:00;;;;;;;42.72;26.23;;;12.20;99.90;;;;;;5052524;28;20125;-74
2023/05/21 05:14:26;;;;;;;41.08;26.83;;;12.30;99.90;;;;;;5052894;28;20060;-73
2023/05/21 05:16:53;;;;;;;36.65;25.75;;;12.20;99.90;;;;;;5052903;28;20065;-73
2023/05/21 05:19:19;;;;;;;35.05;24.27;;;12.30;99.90;;;;;;5051965;28;20039;-73
2023/05/21 05:21:45;;;;;;;36.53;24.35;;;12.30;99.90;;;;;;5052961;28;20021;-73
2023/05/21 05:24:11;;;;;;;38.00;25.73;;;12.40;99.90;;;;;;5052305;28;20021;-73
2023/05/21 05:26:37;;;;;;;39.15;25.55;;;12.50;99.90;;;;;;5053233;28;20106;-73
2023/05/21 05:29:02;;;;;;;48.15;28.83;;;12.50;99.90;;;;;;5050961;28;20527;-73
2023/05/21 05:31:28;;;;;;;48.90;31.73;;;12.50;99.90;;;;;;5053174;28;20073;-73
2023/05/21 05:33:54;;;;;;;46.10;30.52;;;12.60;99.90;;;;;;5052566;28;20492;-73
2023/05/21 05:36:20;;;;;;;41.95;29.38;;;12.60;99.90;;;;;;5052553;28;20032;-73
2023/05/21 05:38:45;;;;;;;42.72;29.25;;;12.60;99.90;;;;;;5052718;28;20033;-73
2023/05/21 05:41:11;;;;;;;40.83;26.73;;;12.60;99.90;;;;;;5052340;28;20398;-73
2023/05/21 05:43:37;;;;;;;47.08;29.17;;;12.60;99.90;;;;;;5052673;28;20377;-74
2023/05/21 05:46:02;;;;;;;49.13;30.27;;;12.60;99.90;;;;;;5052301;28;20407;-72
2023/05/21 05:48:28;;;;;;;42.92;28.63;;;12.70;99.90;;;;;;5052718;28;20497;-71
2023/05/21 05:50:55;;;;;;;48.65;29.10;;;12.70;99.90;;;;;;5052975;28;20096;-72
2023/05/21 05:53:21;;;;;;;45.67;30.23;;;12.70;99.90;;;;;;5052293;28;20305;-72
2023/05/21 05:55:47;;;;;;;38.80;27.50;;;12.70;99.90;;;;;;5052707;28;20162;-71
2023/05/21 05:58:13;;;;;;;40.80;27.45;;;12.60;99.90;;;;;;5051995;28;20056;-72
2023/05/21 06:00:38;;;;;;;39.30;27.52;;;12.70;99.90;;;;;;5052236;28;20096;-72
2023/05/21 06:03:04;;;;;;;42.30;27.98;;;12.70;99.90;;;;;;5051435;28;20806;-72
2023/05/21 06:05:30;;;;;;;44.20;27.42;;;12.80;99.90;;;;;;5052162;28;20541;-72
2023/05/21 06:07:56;;;;;;;41.50;25.63;;;12.80;99.90;;;;;;5052080;28;20025;-72
2023/05/21 06:10:22;;;;;;;41.75;27.40;;;12.90;99.90;;;;;;5051287;28;20470;-72
2023/05/21 06:12:47;;;;;;;37.15;25.40;;;13.00;99.90;;;;;;5052007;28;20111;-72
2023/05/21 06:15:18;;;;;;;37.75;25.38;;;13.00;99.90;;;;;;5050960;28;20032;-72
2023/05/21 06:17:44;;;;;;;37.13;23.48;;;13.10;99.90;;;;;;5050703;28;20432;-72
2023/05/21 06:20:11;;;;;;;37.72;24.60;;;13.10;99.90;;;;;;5051333;28;20033;-72
2023/05/21 06:22:36;;;;;;;32.33;24.23;;;13.20;99.90;;;;;;5051910;28;20096;-72
2023/05/21 06:25:03;;;;;;;37.42;23.02;;;13.20;99.90;;;;;;5050748;28;20045;-74
2023/05/21 06:27:29;;;;;;;36.22;23.30;;;13.30;99.90;;;;;;5051983;28;20104;-72
2023/05/21 06:29:56;;;;;;;35.30;23.58;;;13.30;99.90;;;;;;5051620;28;20060;-72
2023/05/21 06:32:23;;;;;;;33.83;24.02;;;13.30;99.90;;;;;;5050559;28;20052;-72
2023/05/21 06:34:49;;;;;;;37.28;24.00;;;13.30;99.90;;;;;;5051283;28;20104;-72
2023/05/21 06:37:19;;;;;;;33.40;22.70;;;13.40;99.90;;;;;;5051084;28;20509;-74
2023/05/21 06:39:45;;;;;;;38.25;23.95;;;13.60;99.90;;;;;;5051869;28;20104;-73
2023/05/21 06:42:11;;;;;;;31.60;22.73;;;13.60;99.90;;;;;;5051152;28;20473;-72
2023/05/21 06:44:36;;;;;;;33.10;22.25;;;13.70;99.90;;;;;;5050263;28;20095;-73
2023/05/21 06:47:02;;;;;;;35.70;23.23;;;13.70;99.90;;;;;;5049855;28;20530;-75
2023/05/21 06:49:28;;;;;;;38.08;25.33;;;13.70;99.90;;;;;;5050549;28;20070;-73
2023/05/21 06:51:53;;;;;;;37.58;24.02;;;13.80;99.90;;;;;;5051182;28;20057;-72
2023/05/21 06:54:19;;;;;;;38.40;23.63;;;13.90;99.90;;;;;;5050927;28;20390;-72
2023/05/21 06:56:45;;;;;;;38.38;24.02;;;13.90;99.90;;;;;;5050871;28;20025;-72
2023/05/21 06:59:11;;;;;;;36.50;24.98;;;14.00;99.90;;;;;;5050108;28;20033;-73
2023/05/21 07:01:37;;;;;;;39.60;24.88;;;14.10;99.90;;;;;;5051066;28;20118;-72
2023/05/21 07:04:02;;;;;;;42.70;26.08;;;14.20;99.90;;;;;;5049661;28;20025;-75
2023/05/21 07:06:28;;;;;;;41.20;25.88;;;14.10;99.90;;;;;;5050875;28;20028;-72
2023/05/21 07:08:54;;;;;;;42.40;25.70;;;14.20;99.90;;;;;;5050720;28;20433;-72
2023/05/21 07:11:20;;;;;;;43.53;27.45;;;14.20;99.90;;;;;;5050189;28;20033;-72
2023/05/21 07:13:46;;;;;;;43.25;26.30;;;14.20;99.90;;;;;;5051034;28;20051;-73
2023/05/21 07:16:11;;;;;;;39.88;26.83;;;14.20;99.90;;;;;;5050427;28;20116;-73
2023/05/21 07:18:37;;;;;;;39.92;26.65;;;14.30;99.90;;;;;;5051096;28;20458;-73
2023/05/21 07:21:03;;;;;;;39.60;26.05;;;14.30;99.90;;;;;;5051038;28;20059;-73
2023/05/21 07:23:29;;;;;;;43.55;26.90;;;14.40;99.90;;;;;;5050473;28;20397;-73
2023/05/21 07:25:54;;;;;;;39.88;25.92;;;14.50;99.90;;;;;;5050215;28;20049;-73
2023/05/21 07:28:20;;;;;;;42.42;24.67;;;14.60;99.90;;;;;;5050450;28;20051;-73
2023/05/21 07:30:46;;;;;;;49.50;28.52;;;14.60;99.90;;;;;;5050914;28;20044;-73
2023/05/21 07:33:12;;;;;;;37.05;23.55;;;14.60;99.90;;;;;;5050420;28;20036;-74
2023/05/21 07:35:38;;;;;;;38.70;24.38;;;14.80;99.90;;;;;;5050854;28;20178;-73
2023/05/21 07:38:03;;;;;;;41.00;25.75;;;14.90;99.90;;;;;;5050771;28;20025;-73
2023/05/21 07:40:29;;;;;;;33.33;24.17;;;14.90;99.90;;;;;;5048276;28;20033;-73
2023/05/21 07:42:55;;;;;;;42.42;25.30;;;15.00;99.90;;;;;;5050577;28;20036;-72
2023/05/21 07:45:20;;;;;;;35.03;23.80;;;15.00;99.90;;;;;;5049594;28;20025;-73
2023/05/21 07:47:46;;;;;;;36.95;24.92;;;15.10;99.90;;;;;;5050389;28;20033;-73
2023/05/21 07:50:13;;;;;;;41.08;25.23;;;15.20;99.90;;;;;;5049456;28;20032;-73
2023/05/21 07:52:39;;;;;;;40.90;24.77;;;15.30;99.90;;;;;;5050242;28;20369;-73
2023/05/21 07:55:06;;;;;;;38.45;24.75;;;15.30;99.90;;;;;;5049902;28;20071;-72
2023/05/21 07:57:31;;;;;;;33.67;22.75;;;15.30;99.90;;;;;;5049943;28;20190;-73
2023/05/21 07:59:57;;;;;;;30.90;20.92;;;15.40;99.90;;;;;;5050358;28;20025;-73
2023/05/21 08:02:23;;;;;;;36.15;22.17;;;15.50;99.90;;;;;;5049900;28;20052;-73
2023/05/21 08:04:49;;;;;;;35.58;23.33;;;15.50;99.90;;;;;;5050123;28;20402;-73
2023/05/21 08:07:18;;;;;;;37.55;22.92;;;15.50;99.90;;;;;;5049528;28;20462;-72
2023/05/21 08:09:44;;;;;;;33.70;21.63;;;15.60;99.90;;;;;;5049742;28;20029;-72
2023/05/21 08:12:14;;;;;;;31.33;18.58;;;15.60;99.90;;;;;;5049252;28;20033;-73
2023/05/21 08:14:40;;;;;;;27.25;16.92;;;15.60;99.90;;;;;;5049919;28;20421;-72
2023/05/21 08:17:10;;;;;;;27.13;17.67;;;15.70;99.90;;;;;;5049644;28;20060;-72
2023/05/21 08:19:35;;;;;;;29.35;18.15;;;15.80;99.90;;;;;;5049744;28;20040;-72
2023/05/21 08:22:02;;;;;;;28.05;17.20;;;15.90;99.90;;;;;;5049405;28;20033;-71
2023/05/21 08:24:28;;;;;;;24.80;15.60;;;15.90;99.90;;;;;;5049208;28;20095;-72
2023/05/21 08:26:53;;;;;;;26.08;14.10;;;16.00;99.90;;;;;;5050170;28;20045;-72
2023/05/21 08:29:19;;;;;;;28.58;16.45;;;16.10;99.90;;;;;;5049706;28;20043;-72
2023/05/21 08:31:45;;;;;;;23.98;15.52;;;16.10;99.90;;;;;;5050506;28;20033;-72
2023/05/21 08:34:11;;;;;;;29.52;15.95;;;16.30;99.90;;;;;;5049480;28;20397;-74
2023/05/21 08:36:37;;;;;;;32.42;17.55;;;16.30;99.90;;;;;;5050339;28;20576;-72
2023/05/21 08:39:03;;;;;;;27.20;17.33;;;16.40;99.90;;;;;;5054250;28;20082;-73
2023/05/21 08:41:32;;;;;;;30.42;17.65;;;16.50;99.90;;;;;;5052635;28;20103;-72
2023/05/21 08:44:01;;;;;;;27.45;16.02;;;16.60;99.90;;;;;;5053200;28;20048;-73
2023/05/21 08:46:33;;;;;;;27.15;16.95;;;16.60;99.90;;;;;;5052281;28;20029;-73
2023/05/21 08:49:01;;;;;;;23.63;15.20;;;16.60;99.90;;;;;;5053349;28;20029;-73
2023/05/21 08:51:28;;;;;;;31.60;19.23;;;16.60;99.90;;;;;;5052149;28;20541;-73
2023/05/21 08:53:55;;;;;;;30.50;18.98;;;16.60;99.90;;;;;;5052694;28;20048;-73
2023/05/21 08:56:22;;;;;;;29.98;18.77;;;16.50;99.90;;;;;;5052119;28;20036;-72
2023/05/21 08:58:48;;;;;;;30.45;19.48;;;16.30;99.90;;;;;;5052894;28;20039;-73
2023/05/21 09:01:17;;;;;;;30.27;17.35;;;16.40;99.90;;;;;;5052074;28;20311;-74
2023/05/21 09:03:44;;;;;;;34.45;20.38;;;16.30;99.90;;;;;;5052823;28;20032;-73
2023/05/21 09:06:12;;;;;;;29.02;19.92;;;16.40;99.90;;;;;;5052167;28;20080;-75
2023/05/21 09:08:48;;;;;;;36.63;19.98;;;16.30;99.90;;;;;;5052490;28;20037;-73
2023/05/21 09:11:15;;;;;;;29.17;18.40;;;16.10;99.90;;;;;;5051284;28;20025;-73
2023/05/21 09:13:42;;;;;;;34.60;19.92;;;16.00;99.90;;;;;;5052453;28;20036;-73
2023/05/21 09:16:09;;;;;;;38.50;21.58;;;16.00;99.90;;;;;;5052448;28;20032;-73
2023/05/21 09:18:34;;;;;;;34.53;19.55;;;16.00;99.90;;;;;;5051652;28;20482;-73
2023/05/21 09:21:27;;;;;;;32.15;18.80;;;15.90;99.90;;;;;;5052209;28;20092;-73
2023/05/21 09:23:57;;;;;;;36.63;19.73;;;15.80;99.90;;;;;;5052713;28;20037;-74
2023/05/21 09:26:24;;;;;;;34.55;20.27;;;15.90;99.90;;;;;;5049748;28;20125;-73
2023/05/21 09:28:57;;;;;;;30.52;17.23;;;16.00;99.90;;;;;;5051980;28;20039;-73
2023/05/21 09:31:23;;;;;;;36.25;18.75;;;16.10;99.90;;;;;;5051510;28;20032;-73
2023/05/21 09:33:49;;;;;;;26.85;15.10;;;16.10;99.90;;;;;;5052129;28;20393;-73
2023/05/21 09:36:19;;;;;;;31.58;15.68;;;16.20;99.90;;;;;;5051283;28;20017;-75
2023/05/21 09:38:45;;;;;;;27.92;16.20;;;16.20;99.90;;;;;;5052016;28;20116;-73
2023/05/21 09:41:11;;;;;;;28.30;16.90;;;16.30;99.90;;;;;;5051802;28;20036;-75
2023/05/21 09:43:37;;;;;;;32.40;16.27;;;16.30;99.90;;;;;;5051785;28;20102;-73
2023/05/21 09:46:02;;;;;;;27.45;15.45;;;16.30;99.90;;;;;;5051814;28;20035;-74
2023/05/21 09:48:42;;;;;;;22.30;13.48;;;16.30;99.90;;;;;;5050101;28;20033;-73
2023/05/21 09:51:18;;;;;;;26.42;13.15;;;16.40;99.90;;;;;;5051468;28;20537;-73
2023/05/21 09:53:54;;;;;;;21.35;12.13;;;16.50;99.90;;;;;;5051979;28;20035;-72
2023/05/21 09:56:30;;;;;;;24.67;12.10;;;16.40;99.90;;;;;;5050608;28;20105;-73
2023/05/21 09:59:03;;;;;;;24.75;12.48;;;16.40;99.90;;;;;;5051843;28;20056;-72
2023/05/21 10:01:33;;;;;;;27.45;12.43;;;16.30;99.90;;;;;;5051156;28;20029;-73
2023/05/21 10:04:05;;;;;;;23.65;12.68;;;16.30;99.90;;;;;;5051651;28;20040;-73
2023/05/21 10:06:33;;;;;;;26.30;13.33;;;16.30;99.90;;;;;;5051085;28;20052;-73
2023/05/21 10:09:02;;;;;;;22.77;12.35;;;16.10;99.90;;;;;;5051378;28;20037;-73
2023/05/21 10:11:30;;;;;;;25.17;12.02;;;16.10;99.90;;;;;;5050959;28;20097;-73
2023/05/21 10:14:08;;;;;;;25.20;12.60;;;16.00;99.90;;;;;;5051331;28;20028;-73
2023/05/21 10:16:35;;;;;;;21.90;11.82;;;16.10;99.90;;;;;;5051333;28;20485;-73
2023/05/21 10:19:01;;;;;;;23.45;12.73;;;16.00;99.90;;;;;;5051021;28;20033;-73
2023/05/21 10:21:27;;;;;;;21.40;11.35;;;16.00;99.90;;;;;;5051400;28;20025;-73
2023/05/21 10:23:56;;;;;;;20.38;11.73;;;16.10;99.90;;;;;;5052186;28;20033;-73
2023/05/21 10:26:23;;;;;;;19.30;9.55;;;16.00;99.90;;;;;;5051618;28;20560;-73
2023/05/21 10:28:50;;;;;;;13.10;8.55;;;15.90;99.90;;;;;;5051503;28;20040;-73
2023/05/21 10:31:17;;;;;;;13.02;6.68;;;16.00;99.90;;;;;;5051249;28;20029;-73
2023/05/21 10:33:43;;;;;;;13.05;8.02;;;15.90;99.90;;;;;;5051676;28;20020;-72
2023/05/21 10:36:10;;;;;;;16.40;8.27;;;16.00;99.90;;;;;;5051859;28;20425;-73
2023/05/21 10:38:37;;;;;;;19.67;11.35;;;16.10;99.90;;;;;;5051085;28;20524;-73
2023/05/21 10:41:05;;;;;;;27.90;14.57;;;16.00;99.90;;;;;;5051837;28;20099;-73
2023/05/21 10:43:48;;;;;;;22.23;13.25;;;16.00;99.90;;;;;;5051411;28;20021;-72
2023/05/21 10:46:23;;;;;;;21.40;12.27;;;16.10;99.90;;;;;;5049852;28;20075;-75
2023/05/21 10:49:24;;;;;;;22.42;12.07;;;16.10;99.90;;;;;;5051730;28;20123;-72
2023/05/21 10:52:23;;;;;;;19.83;10.95;;;16.10;99.90;;;;;;5051849;28;20060;-73
2023/05/21 10:54:53;;;;;;;21.42;10.82;;;16.20;99.90;;;;;;5052350;28;20063;-73
2023/05/21 10:57:38;;;;;;;18.70;10.02;;;16.30;99.90;;;;;;5051236;28;20021;-73
2023/05/21 11:00:06;;;;;;;15.90;9.70;;;16.40;99.90;;;;;;5051871;28;20124;-73
2023/05/21 11:02:33;;;;;;;18.73;9.23;;;16.40;99.90;;;;;;5050569;28;20576;-73
2023/05/21 11:05:03;;;;;;;16.45;8.85;;;16.50;99.90;;;;;;5050768;28;20021;-73
2023/05/21 11:07:55;;;;;;;17.85;8.90;;;16.60;99.90;;;;;;5050253;28;20059;-73
2023/05/21 11:10:53;;;;;;;17.45;9.57;;;16.60;99.90;;;;;;5050171;28;20459;-73
2023/05/21 11:13:20;;;;;;;15.77;8.95;;;16.70;99.90;;;;;;5049630;28;20537;-73
2023/05/21 11:16:01;;;;;;;15.23;8.65;;;16.80;99.90;;;;;;5050815;28;20040;-73
2023/05/21 11:18:30;;;;;;;15.65;8.23;;;16.90;99.90;;;;;;5050423;28;20111;-73
2023/05/21 11:21:07;;;;;;;16.25;8.45;;;17.10;99.90;;;;;;5051002;28;20020;-74
2023/05/21 11:23:57;;;;;;;16.67;8.20;;;17.30;99.90;;;;;;5050080;28;20435;-73
2023/05/21 11:26:25;;;;;;;11.73;7.82;;;17.30;99.90;;;;;;5050361;28;20076;-73
2023/05/21 11:29:04;;;;;;;19.63;8.80;;;17.40;99.90;;;;;;5050690;28;20393;-74
2023/05/21 11:31:38;;;;;;;16.33;9.07;;;17.40;99.90;;;;;;5050490;28;20060;-73
2023/05/21 11:34:26;;;;;;;18.67;9.18;;;17.40;99.90;;;;;;5051109;28;20082;-73
2023/05/21 11:37:15;;;;;;;20.00;9.65;;;17.50;99.90;;;;;;5050484;28;20120;-72
2023/05/21 11:39:42;;;;;;;17.10;10.35;;;17.60;99.90;;;;;;5049864;28;20047;-72
2023/05/21 11:42:08;;;;;;;18.60;10.55;;;17.60;99.90;;;;;;5048895;28;20025;-72
2023/05/21 11:44:39;;;;;;;18.33;10.40;;;17.50;99.90;;;;;;5049521;28;20485;-73
2023/05/21 11:47:17;;;;;;;17.00;10.32;;;17.60;99.90;;;;;;5050265;28;20025;-70
2023/05/21 11:49:43;;;;;;;17.73;10.30;;;17.60;99.90;;;;;;5048798;28;20061;-73
2023/05/21 11:52:10;;;;;;;13.82;8.98;;;17.80;99.90;;;;;;5050182;28;20114;-74
2023/05/21 11:54:44;;;;;;;17.20;9.18;;;17.90;99.90;;;;;;5048247;28;20029;-73
2023/05/21 11:57:13;;;;;;;19.38;10.80;;;18.00;99.90;;;;;;5050369;28;20029;-72
2023/05/21 11:59:40;;;;;;;17.42;10.48;;;18.20;99.90;;;;;;5049287;28;20040;-72
2023/05/21 12:02:06;;;;;;;17.00;9.85;;;18.30;99.90;;;;;;5050267;28;20029;-72
2023/05/21 12:04:36;;;;;;;15.07;9.18;;;18.40;99.90;;;;;;5049634;28;20410;-72
2023/05/21 12:07:04;;;;;;;18.15;8.98;;;18.40;99.90;;;;;;5050280;28;20037;-71
2023/05/21 12:09:29;;;;;;;14.43;8.38;;;18.30;99.90;;;;;;5049403;28;20033;-72
2023/05/21 12:11:55;;;;;;;13.73;8.32;;;18.50;99.90;;;;;;5050491;28;20029;-71
2023/05/21 12:14:22;;;;;;;13.20;6.93;;;18.50;99.90;;;;;;5053462;28;20546;-74
2023/05/21 12:16:47;;;;;;;15.55;9.23;;;18.70;99.90;;;;;;5053734;28;20056;-73
2023/05/21 12:19:17;;;;;;;16.73;9.30;;;18.40;99.90;;;;;;5054208;28;20454;-73
2023/05/21 12:21:43;;;;;;;18.20;9.93;;;18.50;99.90;;;;;;5053508;28;20116;-71
2023/05/21 12:24:09;;;;;;;15.88;9.60;;;18.50;99.90;;;;;;5053742;28;20124;-71
2023/05/21 12:26:35;;;;;;;18.40;9.90;;;18.50;99.90;;;;;;5053089;28;20124;-72
2023/05/21 12:29:03;;;;;;;19.00;9.38;;;18.60;99.90;;;;;;5053972;28;20120;-72
2023/05/21 12:31:29;;;;;;;18.95;10.20;;;18.40;99.90;;;;;;5053004;28;20029;-72